sensor_id;sensor_type;location;lat;lon;timestamp;P1;durP1;ratioP1;P2;durP2;ratioP2
66421;SDS011;53228;51.380;0.098;2023-11-21T00:00:17;7.18;;;5.22;;
66421;SDS011;53228;51.380;0.098;2023-11-21T00:02:45;8.00;;;5.70;;
66421;SDS011;53228;51.380;0.098;2023-11-21T00:05:14;9.15;;;5.43;;
66421;SDS011;53228;51.380;0.098;2023-11-21T00:07:42;9.32;;;5.72;;
66421;SDS011;53228;51.380;0.098;2023-11-21T00:10:11;9.00;;;5.78;;
66421;SDS011;53228;51.380;0.098;2023-11-21T00:12:41;10.35;;;6.60;;
66421;SDS011;53228;51.380;0.098;2023-11-21T00:15:09;6.95;;;5.25;;
66421;SDS011;53228;51.380;0.098;2023-11-21T00:17:40;9.65;;;4.00;;
66421;SDS011;53228;51.380;0.098;2023-11-21T00:20:09;7.38;;;5.00;;
66421;SDS011;53228;51.380;0.098;2023-11-21T00:22:40;6.07;;;4.60;;
66421;SDS011;53228;51.380;0.098;2023-11-21T00:25:08;9.25;;;3.83;;
66421;SDS011;53228;51.380;0.098;2023-11-21T00:27:36;4.50;;;3.47;;
66421;SDS011;53228;51.380;0.098;2023-11-21T00:30:04;8.00;;;4.45;;
66421;SDS011;53228;51.380;0.098;2023-11-21T00:32:34;9.77;;;4.15;;
66421;SDS011;53228;51.380;0.098;2023-11-21T00:35:03;5.55;;;3.58;;
66421;SDS011;53228;51.380;0.098;2023-11-21T00:37:32;5.30;;;4.28;;
66421;SDS011;53228;51.380;0.098;2023-11-21T00:40:00;6.45;;;4.30;;
66421;SDS011;53228;51.380;0.098;2023-11-21T00:42:33;5.18;;;3.97;;
66421;SDS011;53228;51.380;0.098;2023-11-21T00:45:01;7.75;;;5.07;;
66421;SDS011;53228;51.380;0.098;2023-11-21T00:47:31;4.95;;;3.70;;
66421;SDS011;53228;51.380;0.098;2023-11-21T00:49:58;4.40;;;3.30;;
66421;SDS011;53228;51.380;0.098;2023-11-21T00:52:26;4.43;;;3.28;;
66421;SDS011;53228;51.380;0.098;2023-11-21T00:54:54;3.30;;;2.83;;
66421;SDS011;53228;51.380;0.098;2023-11-21T00:57:22;4.07;;;2.60;;
66421;SDS011;53228;51.380;0.098;2023-11-21T00:59:51;4.75;;;2.65;;
66421;SDS011;53228;51.380;0.098;2023-11-21T01:02:18;4.00;;;3.10;;
66421;SDS011;53228;51.380;0.098;2023-11-21T01:04:47;5.05;;;2.70;;
66421;SDS011;53228;51.380;0.098;2023-11-21T01:07:15;3.30;;;2.15;;
66421;SDS011;53228;51.380;0.098;2023-11-21T01:09:43;2.30;;;2.10;;
66421;SDS011;53228;51.380;0.098;2023-11-21T01:12:11;2.55;;;1.90;;
66421;SDS011;53228;51.380;0.098;2023-11-21T01:14:39;3.83;;;1.63;;
66421;SDS011;53228;51.380;0.098;2023-11-21T01:17:07;2.58;;;1.58;;
66421;SDS011;53228;51.380;0.098;2023-11-21T01:19:35;1.42;;;1.15;;
66421;SDS011;53228;51.380;0.098;2023-11-21T01:22:04;2.00;;;1.10;;
66421;SDS011;53228;51.380;0.098;2023-11-21T01:24:32;1.50;;;1.33;;
66421;SDS011;53228;51.380;0.098;2023-11-21T01:26:59;0.77;;;0.77;;
66421;SDS011;53228;51.380;0.098;2023-11-21T01:29:27;2.30;;;0.50;;
66421;SDS011;53228;51.380;0.098;2023-11-21T01:31:55;1.42;;;0.45;;
66421;SDS011;53228;51.380;0.098;2023-11-21T01:34:25;0.20;;;0.20;;
66421;SDS011;53228;51.380;0.098;2023-11-21T01:36:53;0.40;;;0.40;;
66421;SDS011;53228;51.380;0.098;2023-11-21T01:39:21;0.63;;;0.30;;
66421;SDS011;53228;51.380;0.098;2023-11-21T01:41:51;0.57;;;0.45;;
66421;SDS011;53228;51.380;0.098;2023-11-21T01:44:19;0.47;;;0.40;;
66421;SDS011;53228;51.380;0.098;2023-11-21T01:46:47;0.32;;;0.30;;
66421;SDS011;53228;51.380;0.098;2023-11-21T01:49:15;1.52;;;0.25;;
66421;SDS011;53228;51.380;0.098;2023-11-21T01:51:45;0.25;;;0.25;;
66421;SDS011;53228;51.380;0.098;2023-11-21T01:54:19;0.28;;;0.25;;
66421;SDS011;53228;51.380;0.098;2023-11-21T01:56:48;0.75;;;0.30;;
66421;SDS011;53228;51.380;0.098;2023-11-21T01:59:17;2.42;;;0.40;;
66421;SDS011;53228;51.380;0.098;2023-11-21T02:01:48;0.40;;;0.35;;
66421;SDS011;53228;51.380;0.098;2023-11-21T02:04:18;0.55;;;0.40;;
66421;SDS011;53228;51.380;0.098;2023-11-21T02:06:47;0.68;;;0.35;;
66421;SDS011;53228;51.380;0.098;2023-11-21T02:09:15;0.95;;;0.90;;
66421;SDS011;53228;51.380;0.098;2023-11-21T02:11:42;0.70;;;0.70;;
66421;SDS011;53228;51.380;0.098;2023-11-21T02:14:11;1.13;;;0.90;;
66421;SDS011;53228;51.380;0.098;2023-11-21T02:16:40;1.23;;;1.00;;
66421;SDS011;53228;51.380;0.098;2023-11-21T02:19:16;2.72;;;1.08;;
66421;SDS011;53228;51.380;0.098;2023-11-21T02:21:52;1.10;;;1.00;;
66421;SDS011;53228;51.380;0.098;2023-11-21T02:24:21;1.20;;;1.10;;
66421;SDS011;53228;51.380;0.098;2023-11-21T02:26:49;1.33;;;0.95;;
66421;SDS011;53228;51.380;0.098;2023-11-21T02:29:20;0.77;;;0.77;;
66421;SDS011;53228;51.380;0.098;2023-11-21T02:31:57;1.15;;;0.90;;
66421;SDS011;53228;51.380;0.098;2023-11-21T02:34:25;0.90;;;0.90;;
66421;SDS011;53228;51.380;0.098;2023-11-21T02:36:53;0.75;;;0.63;;
66421;SDS011;53228;51.380;0.098;2023-11-21T02:39:21;1.55;;;0.75;;
66421;SDS011;53228;51.380;0.098;2023-11-21T02:41:52;0.68;;;0.55;;
66421;SDS011;53228;51.380;0.098;2023-11-21T02:44:20;3.65;;;0.75;;
66421;SDS011;53228;51.380;0.098;2023-11-21T02:46:48;0.30;;;0.30;;
66421;SDS011;53228;51.380;0.098;2023-11-21T02:49:15;5.07;;;0.60;;
66421;SDS011;53228;51.380;0.098;2023-11-21T02:51:43;0.50;;;0.50;;
66421;SDS011;53228;51.380;0.098;2023-11-21T02:54:11;0.93;;;0.50;;
66421;SDS011;53228;51.380;0.098;2023-11-21T02:56:38;0.75;;;0.40;;
66421;SDS011;53228;51.380;0.098;2023-11-21T02:59:07;0.75;;;0.45;;
66421;SDS011;53228;51.380;0.098;2023-11-21T03:01:34;0.65;;;0.60;;
66421;SDS011;53228;51.380;0.098;2023-11-21T03:04:02;3.08;;;0.68;;
66421;SDS011;53228;51.380;0.098;2023-11-21T03:06:30;0.68;;;0.68;;
66421;SDS011;53228;51.380;0.098;2023-11-21T03:08:58;0.80;;;0.50;;
66421;SDS011;53228;51.380;0.098;2023-11-21T03:11:25;1.88;;;0.50;;
66421;SDS011;53228;51.380;0.098;2023-11-21T03:13:53;0.50;;;0.50;;
66421;SDS011;53228;51.380;0.098;2023-11-21T03:16:21;0.95;;;0.70;;
66421;SDS011;53228;51.380;0.098;2023-11-21T03:18:48;2.03;;;0.60;;
66421;SDS011;53228;51.380;0.098;2023-11-21T03:21:18;1.15;;;0.50;;
66421;SDS011;53228;51.380;0.098;2023-11-21T03:23:46;2.13;;;0.50;;
66421;SDS011;53228;51.380;0.098;2023-11-21T03:26:13;1.02;;;0.57;;
66421;SDS011;53228;51.380;0.098;2023-11-21T03:28:41;1.13;;;0.50;;
66421;SDS011;53228;51.380;0.098;2023-11-21T03:31:09;0.77;;;0.40;;
66421;SDS011;53228;51.380;0.098;2023-11-21T03:33:36;1.88;;;0.50;;
66421;SDS011;53228;51.380;0.098;2023-11-21T03:36:04;1.15;;;0.70;;
66421;SDS011;53228;51.380;0.098;2023-11-21T03:38:32;0.50;;;0.50;;
66421;SDS011;53228;51.380;0.098;2023-11-21T03:41:00;0.98;;;0.50;;
66421;SDS011;53228;51.380;0.098;2023-11-21T03:43:28;4.03;;;0.65;;
66421;SDS011;53228;51.380;0.098;2023-11-21T03:45:56;1.20;;;0.57;;
66421;SDS011;53228;51.380;0.098;2023-11-21T03:48:24;3.38;;;0.88;;
66421;SDS011;53228;51.380;0.098;2023-11-21T03:50:51;0.73;;;0.70;;
66421;SDS011;53228;51.380;0.098;2023-11-21T03:53:19;2.05;;;0.90;;
66421;SDS011;53228;51.380;0.098;2023-11-21T03:55:47;1.00;;;0.47;;
66421;SDS011;53228;51.380;0.098;2023-11-21T03:58:14;3.78;;;0.57;;
66421;SDS011;53228;51.380;0.098;2023-11-21T04:00:42;0.65;;;0.55;;
66421;SDS011;53228;51.380;0.098;2023-11-21T04:03:09;0.63;;;0.45;;
66421;SDS011;53228;51.380;0.098;2023-11-21T04:05:37;0.93;;;0.43;;
66421;SDS011;53228;51.380;0.098;2023-11-21T04:08:05;0.88;;;0.60;;
66421;SDS011;53228;51.380;0.098;2023-11-21T04:10:32;2.92;;;0.60;;
66421;SDS011;53228;51.380;0.098;2023-11-21T04:13:00;1.05;;;0.60;;
66421;SDS011;53228;51.380;0.098;2023-11-21T04:15:28;2.38;;;0.50;;
66421;SDS011;53228;51.380;0.098;2023-11-21T04:17:55;0.68;;;0.30;;
66421;SDS011;53228;51.380;0.098;2023-11-21T04:20:23;0.68;;;0.30;;
66421;SDS011;53228;51.380;0.098;2023-11-21T04:22:51;0.32;;;0.32;;
66421;SDS011;53228;51.380;0.098;2023-11-21T04:25:19;3.13;;;0.50;;
66421;SDS011;53228;51.380;0.098;2023-11-21T04:27:47;1.40;;;0.50;;
66421;SDS011;53228;51.380;0.098;2023-11-21T04:30:14;1.33;;;0.60;;
66421;SDS011;53228;51.380;0.098;2023-11-21T04:32:42;1.38;;;0.45;;
66421;SDS011;53228;51.380;0.098;2023-11-21T04:35:10;6.47;;;0.50;;
66421;SDS011;53228;51.380;0.098;2023-11-21T04:37:38;1.35;;;0.45;;
66421;SDS011;53228;51.380;0.098;2023-11-21T04:40:07;0.40;;;0.22;;
66421;SDS011;53228;51.380;0.098;2023-11-21T04:42:35;3.15;;;0.60;;
66421;SDS011;53228;51.380;0.098;2023-11-21T04:45:04;1.33;;;0.50;;
66421;SDS011;53228;51.380;0.098;2023-11-21T04:47:36;0.63;;;0.45;;
66421;SDS011;53228;51.380;0.098;2023-11-21T04:50:05;1.60;;;0.60;;
66421;SDS011;53228;51.380;0.098;2023-11-21T04:52:33;0.22;;;0.22;;
66421;SDS011;53228;51.380;0.098;2023-11-21T04:55:00;1.40;;;0.50;;
66421;SDS011;53228;51.380;0.098;2023-11-21T04:57:30;0.20;;;0.20;;
66421;SDS011;53228;51.380;0.098;2023-11-21T04:59:57;0.90;;;0.50;;
66421;SDS011;53228;51.380;0.098;2023-11-21T05:02:25;0.20;;;0.20;;
66421;SDS011;53228;51.380;0.098;2023-11-21T05:05:02;0.22;;;0.20;;
66421;SDS011;53228;51.380;0.098;2023-11-21T05:07:33;0.20;;;0.20;;
66421;SDS011;53228;51.380;0.098;2023-11-21T05:10:06;0.60;;;0.40;;
66421;SDS011;53228;51.380;0.098;2023-11-21T05:12:42;0.30;;;0.20;;
66421;SDS011;53228;51.380;0.098;2023-11-21T05:15:10;1.40;;;0.20;;
66421;SDS011;53228;51.380;0.098;2023-11-21T05:17:41;0.10;;;0.10;;
66421;SDS011;53228;51.380;0.098;2023-11-21T05:20:10;1.38;;;0.17;;
66421;SDS011;53228;51.380;0.098;2023-11-21T05:22:40;0.30;;;0.30;;
66421;SDS011;53228;51.380;0.098;2023-11-21T05:25:09;0.55;;;0.30;;
66421;SDS011;53228;51.380;0.098;2023-11-21T05:27:38;0.75;;;0.20;;
66421;SDS011;53228;51.380;0.098;2023-11-21T05:30:06;0.20;;;0.20;;
66421;SDS011;53228;51.380;0.098;2023-11-21T05:32:38;0.63;;;0.32;;
66421;SDS011;53228;51.380;0.098;2023-11-21T05:35:07;0.65;;;0.50;;
66421;SDS011;53228;51.380;0.098;2023-11-21T05:37:39;1.05;;;0.28;;
66421;SDS011;53228;51.380;0.098;2023-11-21T05:40:07;0.20;;;0.10;;
66421;SDS011;53228;51.380;0.098;2023-11-21T05:42:35;3.28;;;0.60;;
66421;SDS011;53228;51.380;0.098;2023-11-21T05:45:05;0.20;;;0.20;;
66421;SDS011;53228;51.380;0.098;2023-11-21T05:47:40;0.30;;;0.20;;
66421;SDS011;53228;51.380;0.098;2023-11-21T05:50:09;0.30;;;0.15;;
66421;SDS011;53228;51.380;0.098;2023-11-21T05:52:40;0.85;;;0.30;;
66421;SDS011;53228;51.380;0.098;2023-11-21T05:55:11;1.38;;;0.20;;
66421;SDS011;53228;51.380;0.098;2023-11-21T05:57:40;0.40;;;0.28;;
66421;SDS011;53228;51.380;0.098;2023-11-21T06:00:11;1.25;;;0.50;;
66421;SDS011;53228;51.380;0.098;2023-11-21T06:02:48;1.90;;;0.20;;
66421;SDS011;53228;51.380;0.098;2023-11-21T06:05:22;0.45;;;0.20;;
66421;SDS011;53228;51.380;0.098;2023-11-21T06:07:51;0.35;;;0.35;;
66421;SDS011;53228;51.380;0.098;2023-11-21T06:10:26;2.60;;;0.20;;
66421;SDS011;53228;51.380;0.098;2023-11-21T06:12:55;0.10;;;0.10;;
66421;SDS011;53228;51.380;0.098;2023-11-21T06:15:30;0.28;;;0.28;;
66421;SDS011;53228;51.380;0.098;2023-11-21T06:17:58;3.42;;;0.30;;
66421;SDS011;53228;51.380;0.098;2023-11-21T06:20:26;0.65;;;0.30;;
66421;SDS011;53228;51.380;0.098;2023-11-21T06:22:54;0.57;;;0.40;;
66421;SDS011;53228;51.380;0.098;2023-11-21T06:25:24;0.25;;;0.20;;
66421;SDS011;53228;51.380;0.098;2023-11-21T06:27:52;1.23;;;0.70;;
66421;SDS011;53228;51.380;0.098;2023-11-21T06:30:21;1.08;;;0.68;;
66421;SDS011;53228;51.380;0.098;2023-11-21T06:32:49;0.30;;;0.25;;
66421;SDS011;53228;51.380;0.098;2023-11-21T06:35:18;1.10;;;0.35;;
66421;SDS011;53228;51.380;0.098;2023-11-21T06:37:46;0.20;;;0.20;;
66421;SDS011;53228;51.380;0.098;2023-11-21T06:40:18;0.20;;;0.20;;
66421;SDS011;53228;51.380;0.098;2023-11-21T06:42:46;0.30;;;0.30;;
66421;SDS011;53228;51.380;0.098;2023-11-21T06:45:15;1.63;;;0.40;;
66421;SDS011;53228;51.380;0.098;2023-11-21T06:47:43;2.05;;;0.30;;
66421;SDS011;53228;51.380;0.098;2023-11-21T06:50:12;1.25;;;0.70;;
66421;SDS011;53228;51.380;0.098;2023-11-21T06:52:43;0.57;;;0.20;;
66421;SDS011;53228;51.380;0.098;2023-11-21T06:55:11;0.55;;;0.50;;
66421;SDS011;53228;51.380;0.098;2023-11-21T06:57:39;1.10;;;0.30;;
66421;SDS011;53228;51.380;0.098;2023-11-21T07:00:06;1.42;;;0.60;;
66421;SDS011;53228;51.380;0.098;2023-11-21T07:02:38;0.70;;;0.30;;
66421;SDS011;53228;51.380;0.098;2023-11-21T07:05:07;0.88;;;0.47;;
66421;SDS011;53228;51.380;0.098;2023-11-21T07:07:35;2.42;;;0.70;;
66421;SDS011;53228;51.380;0.098;2023-11-21T07:10:04;3.40;;;0.55;;
66421;SDS011;53228;51.380;0.098;2023-11-21T07:12:33;1.27;;;0.50;;
66421;SDS011;53228;51.380;0.098;2023-11-21T07:15:01;0.20;;;0.20;;
66421;SDS011;53228;51.380;0.098;2023-11-21T07:17:30;1.80;;;0.60;;
66421;SDS011;53228;51.380;0.098;2023-11-21T07:19:58;0.85;;;0.63;;
66421;SDS011;53228;51.380;0.098;2023-11-21T07:22:26;2.80;;;0.60;;
66421;SDS011;53228;51.380;0.098;2023-11-21T07:24:54;2.05;;;0.60;;
66421;SDS011;53228;51.380;0.098;2023-11-21T07:27:23;4.68;;;0.63;;
66421;SDS011;53228;51.380;0.098;2023-11-21T07:29:57;4.32;;;0.55;;
66421;SDS011;53228;51.380;0.098;2023-11-21T07:32:25;0.75;;;0.75;;
66421;SDS011;53228;51.380;0.098;2023-11-21T07:34:53;0.32;;;0.30;;
66421;SDS011;53228;51.380;0.098;2023-11-21T07:37:22;0.70;;;0.57;;
66421;SDS011;53228;51.380;0.098;2023-11-21T07:39:50;0.77;;;0.47;;
66421;SDS011;53228;51.380;0.098;2023-11-21T07:42:25;3.15;;;0.50;;
66421;SDS011;53228;51.380;0.098;2023-11-21T07:44:53;0.68;;;0.57;;
66421;SDS011;53228;51.380;0.098;2023-11-21T07:47:21;2.50;;;0.45;;
66421;SDS011;53228;51.380;0.098;2023-11-21T07:49:48;0.93;;;0.70;;
66421;SDS011;53228;51.380;0.098;2023-11-21T07:52:16;1.17;;;0.93;;
66421;SDS011;53228;51.380;0.098;2023-11-21T07:54:47;0.77;;;0.68;;
66421;SDS011;53228;51.380;0.098;2023-11-21T07:57:14;1.25;;;0.70;;
66421;SDS011;53228;51.380;0.098;2023-11-21T07:59:42;2.42;;;0.50;;
66421;SDS011;53228;51.380;0.098;2023-11-21T08:02:09;2.20;;;0.90;;
66421;SDS011;53228;51.380;0.098;2023-11-21T08:04:37;4.70;;;0.90;;
66421;SDS011;53228;51.380;0.098;2023-11-21T08:07:05;1.08;;;0.50;;
66421;SDS011;53228;51.380;0.098;2023-11-21T08:09:32;2.80;;;0.80;;
66421;SDS011;53228;51.380;0.098;2023-11-21T08:12:01;4.20;;;1.10;;
66421;SDS011;53228;51.380;0.098;2023-11-21T08:14:30;1.55;;;0.60;;
66421;SDS011;53228;51.380;0.098;2023-11-21T08:16:58;2.13;;;0.68;;
66421;SDS011;53228;51.380;0.098;2023-11-21T08:19:26;3.47;;;0.80;;
66421;SDS011;53228;51.380;0.098;2023-11-21T08:21:55;2.58;;;0.73;;
66421;SDS011;53228;51.380;0.098;2023-11-21T08:24:22;2.63;;;1.00;;
66421;SDS011;53228;51.380;0.098;2023-11-21T08:26:50;2.08;;;0.65;;
66421;SDS011;53228;51.380;0.098;2023-11-21T08:29:19;2.95;;;0.63;;
66421;SDS011;53228;51.380;0.098;2023-11-21T08:31:47;3.08;;;0.43;;
66421;SDS011;53228;51.380;0.098;2023-11-21T08:34:15;4.32;;;0.68;;
66421;SDS011;53228;51.380;0.098;2023-11-21T08:36:43;3.30;;;0.75;;
66421;SDS011;53228;51.380;0.098;2023-11-21T08:39:11;2.38;;;0.65;;
66421;SDS011;53228;51.380;0.098;2023-11-21T08:41:40;0.90;;;0.45;;
66421;SDS011;53228;51.380;0.098;2023-11-21T08:44:08;1.60;;;0.82;;
66421;SDS011;53228;51.380;0.098;2023-11-21T08:46:36;1.40;;;0.65;;
66421;SDS011;53228;51.380;0.098;2023-11-21T08:49:05;2.47;;;0.63;;
66421;SDS011;53228;51.380;0.098;2023-11-21T08:51:33;3.95;;;0.60;;
66421;SDS011;53228;51.380;0.098;2023-11-21T08:54:01;0.63;;;0.38;;
66421;SDS011;53228;51.380;0.098;2023-11-21T08:56:31;3.75;;;0.60;;
66421;SDS011;53228;51.380;0.098;2023-11-21T08:58:59;2.15;;;1.02;;
66421;SDS011;53228;51.380;0.098;2023-11-21T09:01:29;11.50;;;4.22;;
66421;SDS011;53228;51.380;0.098;2023-11-21T09:04:00;2.75;;;0.77;;
66421;SDS011;53228;51.380;0.098;2023-11-21T09:06:27;2.85;;;0.73;;
66421;SDS011;53228;51.380;0.098;2023-11-21T09:08:55;4.18;;;1.73;;
66421;SDS011;53228;51.380;0.098;2023-11-21T09:11:23;3.10;;;0.98;;
66421;SDS011;53228;51.380;0.098;2023-11-21T09:13:52;1.80;;;0.80;;
66421;SDS011;53228;51.380;0.098;2023-11-21T09:16:19;5.80;;;1.80;;
66421;SDS011;53228;51.380;0.098;2023-11-21T09:18:47;3.42;;;1.13;;
66421;SDS011;53228;51.380;0.098;2023-11-21T09:21:15;5.68;;;1.02;;
66421;SDS011;53228;51.380;0.098;2023-11-21T09:23:45;4.30;;;0.90;;
66421;SDS011;53228;51.380;0.098;2023-11-21T09:26:13;2.85;;;0.80;;
66421;SDS011;53228;51.380;0.098;2023-11-21T09:28:43;2.28;;;1.08;;
66421;SDS011;53228;51.380;0.098;2023-11-21T09:31:15;2.22;;;0.95;;
66421;SDS011;53228;51.380;0.098;2023-11-21T09:33:49;4.25;;;1.30;;
66421;SDS011;53228;51.380;0.098;2023-11-21T09:36:17;0.80;;;0.70;;
66421;SDS011;53228;51.380;0.098;2023-11-21T09:38:45;3.00;;;1.60;;
66421;SDS011;53228;51.380;0.098;2023-11-21T09:41:57;5.03;;;1.00;;
66421;SDS011;53228;51.380;0.098;2023-11-21T09:44:04;8.43;;;1.17;;
66421;SDS011;53228;51.380;0.098;2023-11-21T09:46:39;8.85;;;1.45;;
66421;SDS011;53228;51.380;0.098;2023-11-21T09:49:09;2.80;;;1.00;;
66421;SDS011;53228;51.380;0.098;2023-11-21T09:51:45;4.68;;;1.63;;
66421;SDS011;53228;51.380;0.098;2023-11-21T09:54:15;3.58;;;1.40;;
66421;SDS011;53228;51.380;0.098;2023-11-21T09:56:44;6.82;;;1.73;;
66421;SDS011;53228;51.380;0.098;2023-11-21T09:59:13;4.47;;;1.30;;
66421;SDS011;53228;51.380;0.098;2023-11-21T10:01:42;4.15;;;1.50;;
66421;SDS011;53228;51.380;0.098;2023-11-21T10:04:10;1.70;;;1.00;;
66421;SDS011;53228;51.380;0.098;2023-11-21T10:06:41;3.28;;;1.30;;
66421;SDS011;53228;51.380;0.098;2023-11-21T10:09:12;2.45;;;0.90;;
66421;SDS011;53228;51.380;0.098;2023-11-21T10:11:41;3.10;;;0.88;;
66421;SDS011;53228;51.380;0.098;2023-11-21T10:14:10;5.15;;;1.52;;
66421;SDS011;53228;51.380;0.098;2023-11-21T10:16:40;2.90;;;0.80;;
66421;SDS011;53228;51.380;0.098;2023-11-21T10:19:11;2.13;;;0.93;;
66421;SDS011;53228;51.380;0.098;2023-11-21T10:21:42;2.72;;;0.70;;
66421;SDS011;53228;51.380;0.098;2023-11-21T10:24:10;8.05;;;2.25;;
66421;SDS011;53228;51.380;0.098;2023-11-21T10:26:39;3.60;;;1.13;;
66421;SDS011;53228;51.380;0.098;2023-11-21T10:29:19;4.50;;;1.02;;
66421;SDS011;53228;51.380;0.098;2023-11-21T10:31:49;3.80;;;0.80;;
66421;SDS011;53228;51.380;0.098;2023-11-21T10:34:19;2.47;;;0.65;;
66421;SDS011;53228;51.380;0.098;2023-11-21T10:36:48;1.88;;;0.73;;
66421;SDS011;53228;51.380;0.098;2023-11-21T10:39:19;4.35;;;1.25;;
66421;SDS011;53228;51.380;0.098;2023-11-21T10:41:50;3.40;;;0.82;;
66421;SDS011;53228;51.380;0.098;2023-11-21T10:44:18;9.30;;;1.55;;
66421;SDS011;53228;51.380;0.098;2023-11-21T10:46:51;3.45;;;1.00;;
66421;SDS011;53228;51.380;0.098;2023-11-21T10:49:24;3.55;;;1.10;;
66421;SDS011;53228;51.380;0.098;2023-11-21T10:51:53;2.72;;;0.93;;
66421;SDS011;53228;51.380;0.098;2023-11-21T10:54:23;6.25;;;0.82;;
66421;SDS011;53228;51.380;0.098;2023-11-21T10:56:59;6.45;;;1.13;;
66421;SDS011;53228;51.380;0.098;2023-11-21T10:59:28;5.75;;;0.80;;
66421;SDS011;53228;51.380;0.098;2023-11-21T11:01:58;4.97;;;0.90;;
66421;SDS011;53228;51.380;0.098;2023-11-21T11:04:30;1.67;;;0.90;;
66421;SDS011;53228;51.380;0.098;2023-11-21T11:07:01;5.45;;;1.42;;
66421;SDS011;53228;51.380;0.098;2023-11-21T11:09:32;0.82;;;0.77;;
66421;SDS011;53228;51.380;0.098;2023-11-21T11:12:03;4.50;;;0.85;;
66421;SDS011;53228;51.380;0.098;2023-11-21T11:14:33;3.53;;;1.10;;
66421;SDS011;53228;51.380;0.098;2023-11-21T11:17:02;2.38;;;0.68;;
66421;SDS011;53228;51.380;0.098;2023-11-21T11:19:33;1.58;;;0.90;;
66421;SDS011;53228;51.380;0.098;2023-11-21T11:22:06;2.47;;;0.93;;
66421;SDS011;53228;51.380;0.098;2023-11-21T11:28:05;6.57;;;0.98;;
66421;SDS011;53228;51.380;0.098;2023-11-21T11:36:19;2.45;;;0.70;;
66421;SDS011;53228;51.380;0.098;2023-11-21T11:38:53;3.45;;;0.90;;
66421;SDS011;53228;51.380;0.098;2023-11-21T11:41:26;2.35;;;0.85;;
66421;SDS011;53228;51.380;0.098;2023-11-21T11:44:02;1.65;;;0.70;;
66421;SDS011;53228;51.380;0.098;2023-11-21T11:46:49;2.10;;;0.70;;
66421;SDS011;53228;51.380;0.098;2023-11-21T11:49:24;2.53;;;0.73;;
66421;SDS011;53228;51.380;0.098;2023-11-21T11:55:00;0.88;;;0.60;;
66421;SDS011;53228;51.380;0.098;2023-11-21T11:57:33;4.15;;;0.93;;
66421;SDS011;53228;51.380;0.098;2023-11-21T12:02:39;4.50;;;0.70;;
66421;SDS011;53228;51.380;0.098;2023-11-21T12:05:08;2.15;;;0.90;;
66421;SDS011;53228;51.380;0.098;2023-11-21T12:10:15;6.65;;;0.80;;
66421;SDS011;53228;51.380;0.098;2023-11-21T12:12:49;5.70;;;2.05;;
66421;SDS011;53228;51.380;0.098;2023-11-21T12:15:22;28.67;;;13.35;;
66421;SDS011;53228;51.380;0.098;2023-11-21T12:17:51;5.70;;;0.80;;
66421;SDS011;53228;51.380;0.098;2023-11-21T12:20:20;1.05;;;0.73;;
66421;SDS011;53228;51.380;0.098;2023-11-21T12:22:49;5.32;;;0.60;;
66421;SDS011;53228;51.380;0.098;2023-11-21T12:25:22;1.08;;;0.70;;
66421;SDS011;53228;51.380;0.098;2023-11-21T12:27:52;2.72;;;0.75;;
66421;SDS011;53228;51.380;0.098;2023-11-21T12:30:21;2.38;;;0.80;;
66421;SDS011;53228;51.380;0.098;2023-11-21T12:32:50;2.97;;;1.20;;
66421;SDS011;53228;51.380;0.098;2023-11-21T12:35:20;6.97;;;1.33;;
66421;SDS011;53228;51.380;0.098;2023-11-21T12:37:52;2.75;;;1.30;;
66421;SDS011;53228;51.380;0.098;2023-11-21T12:40:21;1.80;;;0.60;;
66421;SDS011;53228;51.380;0.098;2023-11-21T12:42:53;3.92;;;0.80;;
66421;SDS011;53228;51.380;0.098;2023-11-21T12:45:26;4.70;;;0.75;;
66421;SDS011;53228;51.380;0.098;2023-11-21T12:50:35;0.93;;;0.60;;
66421;SDS011;53228;51.380;0.098;2023-11-21T12:53:05;1.38;;;0.50;;
66421;SDS011;53228;51.380;0.098;2023-11-21T12:55:39;1.30;;;0.45;;
66421;SDS011;53228;51.380;0.098;2023-11-21T12:58:09;1.25;;;0.35;;
66421;SDS011;53228;51.380;0.098;2023-11-21T13:00:40;1.70;;;0.70;;
66421;SDS011;53228;51.380;0.098;2023-11-21T13:03:15;2.47;;;0.40;;
66421;SDS011;53228;51.380;0.098;2023-11-21T13:05:46;4.25;;;1.50;;
66421;SDS011;53228;51.380;0.098;2023-11-21T13:08:20;3.53;;;0.60;;
66421;SDS011;53228;51.380;0.098;2023-11-21T13:10:52;2.28;;;0.60;;
66421;SDS011;53228;51.380;0.098;2023-11-21T13:13:23;4.55;;;0.95;;
66421;SDS011;53228;51.380;0.098;2023-11-21T13:15:53;2.30;;;0.47;;
66421;SDS011;53228;51.380;0.098;2023-11-21T13:18:25;2.75;;;0.57;;
66421;SDS011;53228;51.380;0.098;2023-11-21T13:21:04;6.47;;;1.00;;
66421;SDS011;53228;51.380;0.098;2023-11-21T13:23:38;1.75;;;0.30;;
66421;SDS011;53228;51.380;0.098;2023-11-21T13:26:07;1.02;;;0.50;;
66421;SDS011;53228;51.380;0.098;2023-11-21T13:28:36;0.57;;;0.45;;
66421;SDS011;53228;51.380;0.098;2023-11-21T13:31:05;2.20;;;0.70;;
66421;SDS011;53228;51.380;0.098;2023-11-21T13:33:38;3.65;;;0.75;;
66421;SDS011;53228;51.380;0.098;2023-11-21T13:36:10;3.88;;;0.75;;
66421;SDS011;53228;51.380;0.098;2023-11-21T13:38:38;2.28;;;0.60;;
66421;SDS011;53228;51.380;0.098;2023-11-21T13:41:10;0.82;;;0.50;;
66421;SDS011;53228;51.380;0.098;2023-11-21T13:43:41;0.95;;;0.60;;
66421;SDS011;53228;51.380;0.098;2023-11-21T13:46:14;1.95;;;0.55;;
66421;SDS011;53228;51.380;0.098;2023-11-21T13:48:49;4.05;;;0.93;;
66421;SDS011;53228;51.380;0.098;2023-11-21T13:51:24;2.58;;;0.85;;
66421;SDS011;53228;51.380;0.098;2023-11-21T13:54:04;2.33;;;1.42;;
66421;SDS011;53228;51.380;0.098;2023-11-21T13:56:37;1.90;;;0.70;;
66421;SDS011;53228;51.380;0.098;2023-11-21T13:59:07;3.65;;;0.63;;
66421;SDS011;53228;51.380;0.098;2023-11-21T14:01:48;2.40;;;1.73;;
66421;SDS011;53228;51.380;0.098;2023-11-21T14:04:27;3.22;;;1.65;;
66421;SDS011;53228;51.380;0.098;2023-11-21T14:06:58;4.38;;;2.90;;
66421;SDS011;53228;51.380;0.098;2023-11-21T14:09:28;3.72;;;1.35;;
66421;SDS011;53228;51.380;0.098;2023-11-21T14:12:11;4.50;;;1.25;;
66421;SDS011;53228;51.380;0.098;2023-11-21T14:14:40;4.00;;;1.45;;
66421;SDS011;53228;51.380;0.098;2023-11-21T14:17:08;2.67;;;0.77;;
66421;SDS011;53228;51.380;0.098;2023-11-21T14:19:37;3.90;;;0.90;;
66421;SDS011;53228;51.380;0.098;2023-11-21T14:22:11;1.15;;;0.60;;
66421;SDS011;53228;51.380;0.098;2023-11-21T14:24:39;1.25;;;0.80;;
66421;SDS011;53228;51.380;0.098;2023-11-21T14:27:13;5.13;;;1.20;;
66421;SDS011;53228;51.380;0.098;2023-11-21T14:29:44;6.25;;;1.40;;
66421;SDS011;53228;51.380;0.098;2023-11-21T14:32:12;1.52;;;0.82;;
66421;SDS011;53228;51.380;0.098;2023-11-21T14:34:42;2.72;;;0.82;;
66421;SDS011;53228;51.380;0.098;2023-11-21T14:37:13;1.13;;;0.70;;
66421;SDS011;53228;51.380;0.098;2023-11-21T14:39:41;3.22;;;1.13;;
66421;SDS011;53228;51.380;0.098;2023-11-21T14:42:13;1.65;;;1.25;;
66421;SDS011;53228;51.380;0.098;2023-11-21T14:44:42;2.97;;;1.25;;
66421;SDS011;53228;51.380;0.098;2023-11-21T14:47:10;2.45;;;0.90;;
66421;SDS011;53228;51.380;0.098;2023-11-21T14:49:43;1.65;;;0.80;;
66421;SDS011;53228;51.380;0.098;2023-11-21T14:52:21;0.73;;;0.60;;
66421;SDS011;53228;51.380;0.098;2023-11-21T14:55:03;3.47;;;1.05;;
66421;SDS011;53228;51.380;0.098;2023-11-21T14:58:06;3.35;;;0.80;;
66421;SDS011;53228;51.380;0.098;2023-11-21T15:00:39;3.85;;;0.80;;
66421;SDS011;53228;51.380;0.098;2023-11-21T15:03:12;7.43;;;1.30;;
66421;SDS011;53228;51.380;0.098;2023-11-21T15:06:10;7.35;;;1.55;;
66421;SDS011;53228;51.380;0.098;2023-11-21T15:08:54;8.98;;;2.70;;
66421;SDS011;53228;51.380;0.098;2023-11-21T15:11:46;7.97;;;1.38;;
66421;SDS011;53228;51.380;0.098;2023-11-21T15:14:14;6.68;;;1.20;;
66421;SDS011;53228;51.380;0.098;2023-11-21T15:16:48;2.03;;;1.00;;
66421;SDS011;53228;51.380;0.098;2023-11-21T15:19:20;4.13;;;1.33;;
66421;SDS011;53228;51.380;0.098;2023-11-21T15:21:53;4.97;;;1.40;;
66421;SDS011;53228;51.380;0.098;2023-11-21T15:24:21;12.73;;;3.30;;